sensor_id;sensor_type;location;lat;lon;timestamp;pressure;altitude;pressure_sealevel;temperature;humidity
47522;BME280;32291;52.010;4.446;2023-04-06T00:00:24;79520.97;;;-144.67;100.00
47522;BME280;32291;52.010;4.446;2023-04-06T00:01:26;79512.38;;;-144.67;100.00
47522;BME280;32291;52.010;4.446;2023-04-06T00:02:28;79512.38;;;-144.67;100.00
47522;BME280;32291;52.010;4.446;2023-04-06T00:03:30;79508.09;;;-144.67;100.00
47522;BME280;32291;52.010;4.446;2023-04-06T00:04:32;79514.53;;;-144.67;100.00
47522;BME280;32291;52.010;4.446;2023-04-06T00:05:34;79516.69;;;-144.67;100.00
47522;BME280;32291;52.010;4.446;2023-04-06T00:06:35;79520.97;;;-144.67;100.00
47522;BME280;32291;52.010;4.446;2023-04-06T00:07:37;79512.38;;;-144.67;100.00
47522;BME280;32291;52.010;4.446;2023-04-06T00:08:38;79514.53;;;-144.67;100.00
47522;BME280;32291;52.010;4.446;2023-04-06T00:09:40;79520.97;;;-144.67;100.00
47522;BME280;32291;52.010;4.446;2023-04-06T00:10:42;79520.97;;;-144.67;100.00
47522;BME280;32291;52.010;4.446;2023-04-06T00:11:44;79525.25;;;-144.67;100.00
47522;BME280;32291;52.010;4.446;2023-04-06T00:12:46;79516.69;;;-144.67;100.00
47522;BME280;32291;52.010;4.446;2023-04-06T00:13:48;79514.53;;;-144.67;100.00
47522;BME280;32291;52.010;4.446;2023-04-06T00:14:49;79514.53;;;-144.67;100.00
47522;BME280;32291;52.010;4.446;2023-04-06T00:15:51;79512.38;;;-144.67;100.00
47522;BME280;32291;52.010;4.446;2023-04-06T00:16:53;79508.09;;;-144.67;100.00
47522;BME280;32291;52.010;4.446;2023-04-06T00:17:55;79510.25;;;-144.67;100.00
47522;BME280;32291;52.010;4.446;2023-04-06T00:18:57;79508.09;;;-144.67;100.00
47522;BME280;32291;52.010;4.446;2023-04-06T00:19:59;79501.69;;;-144.67;100.00
47522;BME280;32291;52.010;4.446;2023-04-06T00:21:01;79499.53;;;-144.67;100.00
47522;BME280;32291;52.010;4.446;2023-04-06T00:22:02;79503.81;;;-144.67;100.00
47522;BME280;32291;52.010;4.446;2023-04-06T00:23:04;79505.97;;;-144.67;100.00
47522;BME280;32291;52.010;4.446;2023-04-06T00:24:06;79497.41;;;-144.67;100.00
47522;BME280;32291;52.010;4.446;2023-04-06T00:25:08;79503.81;;;-144.67;100.00
47522;BME280;32291;52.010;4.446;2023-04-06T00:26:11;79501.69;;;-144.67;100.00
47522;BME280;32291;52.010;4.446;2023-04-06T00:27:12;79499.53;;;-144.67;100.00
47522;BME280;32291;52.010;4.446;2023-04-06T00:28:14;79495.25;;;-144.67;100.00
47522;BME280;32291;52.010;4.446;2023-04-06T00:29:16;79490.97;;;-144.67;100.00
47522;BME280;32291;52.010;4.446;2023-04-06T00:30:18;79488.84;;;-144.67;100.00
47522;BME280;32291;52.010;4.446;2023-04-06T00:31:19;79480.25;;;-144.67;100.00
47522;BME280;32291;52.010;4.446;2023-04-06T00:32:21;79480.25;;;-144.67;100.00
47522;BME280;32291;52.010;4.446;2023-04-06T00:33:23;79488.84;;;-144.67;100.00
47522;BME280;32291;52.010;4.446;2023-04-06T00:34:25;79486.69;;;-144.67;100.00
47522;BME280;32291;52.010;4.446;2023-04-06T00:35:27;79482.41;;;-144.67;100.00
47522;BME280;32291;52.010;4.446;2023-04-06T00:36:29;79482.41;;;-144.67;100.00
47522;BME280;32291;52.010;4.446;2023-04-06T00:37:31;79484.53;;;-144.67;100.00
47522;BME280;32291;52.010;4.446;2023-04-06T00:38:33;79482.41;;;-144.67;99.69
47522;BME280;32291;52.010;4.446;2023-04-06T00:39:34;79486.69;;;-144.67;99.28
47522;BME280;32291;52.010;4.446;2023-04-06T00:40:36;79480.25;;;-144.67;99.13
47522;BME280;32291;52.010;4.446;2023-04-06T00:41:44;79480.25;;;-144.67;98.67
47522;BME280;32291;52.010;4.446;2023-04-06T00:42:47;79478.13;;;-144.67;98.27
47522;BME280;32291;52.010;4.446;2023-04-06T00:43:49;79471.69;;;-144.67;98.15
47522;BME280;32291;52.010;4.446;2023-04-06T00:44:53;79471.69;;;-144.67;97.75
47522;BME280;32291;52.010;4.446;2023-04-06T00:45:56;79471.69;;;-144.67;97.47
47522;BME280;32291;52.010;4.446;2023-04-06T00:46:58;79471.69;;;-144.67;97.32
47522;BME280;32291;52.010;4.446;2023-04-06T00:48:00;79473.84;;;-144.67;97.00
47522;BME280;32291;52.010;4.446;2023-04-06T00:49:02;79471.69;;;-144.67;96.75
47522;BME280;32291;52.010;4.446;2023-04-06T00:50:05;79469.56;;;-144.67;96.57
47522;BME280;32291;52.010;4.446;2023-04-06T00:51:06;79469.56;;;-144.67;96.46
47522;BME280;32291;52.010;4.446;2023-04-06T00:52:08;79467.41;;;-144.67;96.17
47522;BME280;32291;52.010;4.446;2023-04-06T00:53:10;79465.28;;;-144.67;95.99
47522;BME280;32291;52.010;4.446;2023-04-06T00:54:12;79458.84;;;-144.67;95.70
47522;BME280;32291;52.010;4.446;2023-04-06T00:55:14;79461.00;;;-144.67;95.39
47522;BME280;32291;52.010;4.446;2023-04-06T00:56:17;79458.84;;;-144.67;95.19
47522;BME280;32291;52.010;4.446;2023-04-06T00:57:19;79454.56;;;-144.67;94.79
47522;BME280;32291;52.010;4.446;2023-04-06T00:58:21;79456.69;;;-144.67;94.66
47522;BME280;32291;52.010;4.446;2023-04-06T00:59:23;79452.41;;;-144.67;94.56
47522;BME280;32291;52.010;4.446;2023-04-06T01:00:25;79443.84;;;-144.67;94.11
47522;BME280;32291;52.010;4.446;2023-04-06T01:01:27;79448.13;;;-144.67;93.86
47522;BME280;32291;52.010;4.446;2023-04-06T01:02:29;79448.13;;;-144.67;93.73
47522;BME280;32291;52.010;4.446;2023-04-06T01:03:31;79448.13;;;-144.67;93.66
47522;BME280;32291;52.010;4.446;2023-04-06T01:04:33;79443.84;;;-144.67;93.38
47522;BME280;32291;52.010;4.446;2023-04-06T01:05:35;79448.13;;;-144.67;93.31
47522;BME280;32291;52.010;4.446;2023-04-06T01:06:42;79443.84;;;-144.67;93.17
47522;BME280;32291;52.010;4.446;2023-04-06T01:07:43;79441.72;;;-144.67;92.80
47522;BME280;32291;52.010;4.446;2023-04-06T01:08:45;79433.16;;;-144.67;92.45
47522;BME280;32291;52.010;4.446;2023-04-06T01:09:47;79426.72;;;-144.67;92.15
47522;BME280;32291;52.010;4.446;2023-04-06T01:10:48;79413.88;;;-144.67;91.64
47522;BME280;32291;52.010;4.446;2023-04-06T01:11:50;79413.88;;;-144.67;91.54
47522;BME280;32291;52.010;4.446;2023-04-06T01:12:52;79409.59;;;-144.67;91.06
47522;BME280;32291;52.010;4.446;2023-04-06T01:13:54;79398.88;;;-144.67;90.58
47522;BME280;32291;52.010;4.446;2023-04-06T01:14:56;79396.75;;;-144.67;90.11
47522;BME280;32291;52.010;4.446;2023-04-06T01:15:57;79390.31;;;-144.67;89.55
47522;BME280;32291;52.010;4.446;2023-04-06T01:17:00;79383.88;;;-144.67;89.17
47522;BME280;32291;52.010;4.446;2023-04-06T01:18:01;79388.16;;;-144.67;89.08
47522;BME280;32291;52.010;4.446;2023-04-06T01:19:11;79383.88;;;-144.67;88.66
47522;BME280;32291;52.010;4.446;2023-04-06T01:20:13;79383.88;;;-144.67;88.51
47522;BME280;32291;52.010;4.446;2023-04-06T01:21:14;79371.03;;;-144.67;87.98
47522;BME280;32291;52.010;4.446;2023-04-06T01:22:19;79358.19;;;-144.67;87.14
47522;BME280;32291;52.010;4.446;2023-04-06T01:23:21;79362.47;;;-144.67;86.89
47522;BME280;32291;52.010;4.446;2023-04-06T01:24:23;79358.19;;;-144.67;86.10
47522;BME280;32291;52.010;4.446;2023-04-06T01:25:25;79351.75;;;-144.67;85.72
47522;BME280;32291;52.010;4.446;2023-04-06T01:26:26;79345.34;;;-144.67;85.51
47522;BME280;32291;52.010;4.446;2023-04-06T01:27:30;79353.91;;;-144.67;85.41
47522;BME280;32291;52.010;4.446;2023-04-06T01:28:32;79351.75;;;-144.67;85.36
47522;BME280;32291;52.010;4.446;2023-04-06T01:29:33;79336.78;;;-144.67;85.18
47522;BME280;32291;52.010;4.446;2023-04-06T01:30:36;79334.63;;;-144.67;84.88
47522;BME280;32291;52.010;4.446;2023-04-06T01:31:39;79323.91;;;-144.67;84.65
47522;BME280;32291;52.010;4.446;2023-04-06T01:32:41;79336.78;;;-144.67;84.41
47522;BME280;32291;52.010;4.446;2023-04-06T01:33:43;79323.91;;;-144.67;83.99
47522;BME280;32291;52.010;4.446;2023-04-06T01:34:45;79317.50;;;-144.67;83.75
47522;BME280;32291;52.010;4.446;2023-04-06T01:35:47;79311.06;;;-144.67;83.57
47522;BME280;32291;52.010;4.446;2023-04-06T01:36:49;79313.22;;;-144.67;83.42
47522;BME280;32291;52.010;4.446;2023-04-06T01:37:51;79306.78;;;-144.67;83.06
47522;BME280;32291;52.010;4.446;2023-04-06T01:38:53;79302.50;;;-144.67;82.62
47522;BME280;32291;52.010;4.446;2023-04-06T01:39:55;79313.22;;;-144.67;82.67
47522;BME280;32291;52.010;4.446;2023-04-06T01:40:57;79306.78;;;-144.67;82.67
47522;BME280;32291;52.010;4.446;2023-04-06T01:41:59;79304.66;;;-144.67;82.34
47522;BME280;32291;52.010;4.446;2023-04-06T01:43:01;79306.78;;;-144.67;82.35
47522;BME280;32291;52.010;4.446;2023-04-06T01:44:03;79298.22;;;-144.67;82.33
47522;BME280;32291;52.010;4.446;2023-04-06T01:45:05;79296.09;;;-144.67;81.86
47522;BME280;32291;52.010;4.446;2023-04-06T01:46:07;79293.94;;;-144.67;81.24
47522;BME280;32291;52.010;4.446;2023-04-06T01:47:09;79285.38;;;-144.67;80.61
47522;BME280;32291;52.010;4.446;2023-04-06T01:48:11;79285.38;;;-144.67;80.50
47522;BME280;32291;52.010;4.446;2023-04-06T01:49:13;79276.81;;;-144.67;80.11
47522;BME280;32291;52.010;4.446;2023-04-06T01:50:15;79283.22;;;-144.67;80.15
47522;BME280;32291;52.010;4.446;2023-04-06T01:51:17;79270.38;;;-144.67;79.95
47522;BME280;32291;52.010;4.446;2023-04-06T01:52:19;79276.81;;;-144.67;80.08
47522;BME280;32291;52.010;4.446;2023-04-06T01:53:22;79276.81;;;-144.67;80.06
47522;BME280;32291;52.010;4.446;2023-04-06T01:54:23;79272.53;;;-144.67;80.17
47522;BME280;32291;52.010;4.446;2023-04-06T01:55:25;79270.38;;;-144.67;79.54
47522;BME280;32291;52.010;4.446;2023-04-06T01:56:27;79261.81;;;-144.67;79.20
47522;BME280;32291;52.010;4.446;2023-04-06T01:57:29;79266.09;;;-144.67;79.34
47522;BME280;32291;52.010;4.446;2023-04-06T01:58:31;79268.25;;;-144.67;79.17
47522;BME280;32291;52.010;4.446;2023-04-06T01:59:32;79259.66;;;-144.67;79.04
47522;BME280;32291;52.010;4.446;2023-04-06T02:00:34;79255.38;;;-144.67;78.90
47522;BME280;32291;52.010;4.446;2023-04-06T02:01:36;79255.38;;;-144.67;78.86
47522;BME280;32291;52.010;4.446;2023-04-06T02:02:38;79259.66;;;-144.67;78.90
47522;BME280;32291;52.010;4.446;2023-04-06T02:03:40;79259.66;;;-144.67;78.97
47522;BME280;32291;52.010;4.446;2023-04-06T02:04:42;79257.53;;;-144.67;78.93
47522;BME280;32291;52.010;4.446;2023-04-06T02:05:43;79259.66;;;-144.67;79.11
47522;BME280;32291;52.010;4.446;2023-04-06T02:06:45;79253.25;;;-144.67;78.41
47522;BME280;32291;52.010;4.446;2023-04-06T02:07:47;79248.97;;;-144.67;78.19
47522;BME280;32291;52.010;4.446;2023-04-06T02:08:50;79251.09;;;-144.67;78.40
47522;BME280;32291;52.010;4.446;2023-04-06T02:09:55;79248.97;;;-144.67;78.49
47522;BME280;32291;52.010;4.446;2023-04-06T02:10:57;79242.53;;;-144.67;78.40
47522;BME280;32291;52.010;4.446;2023-04-06T02:11:59;79238.25;;;-144.67;78.34
47522;BME280;32291;52.010;4.446;2023-04-06T02:13:02;79236.13;;;-144.67;78.19
47522;BME280;32291;52.010;4.446;2023-04-06T02:14:04;79240.41;;;-144.67;77.95
47522;BME280;32291;52.010;4.446;2023-04-06T02:15:06;79242.53;;;-144.67;77.98
47522;BME280;32291;52.010;4.446;2023-04-06T02:16:08;79236.13;;;-144.67;77.91
47522;BME280;32291;52.010;4.446;2023-04-06T02:17:10;79229.69;;;-144.67;77.78
47522;BME280;32291;52.010;4.446;2023-04-06T02:18:12;79233.97;;;-144.67;77.94
47522;BME280;32291;52.010;4.446;2023-04-06T02:19:14;79229.69;;;-144.67;78.04
47522;BME280;32291;52.010;4.446;2023-04-06T02:20:15;79229.69;;;-144.67;78.22
47522;BME280;32291;52.010;4.446;2023-04-06T02:21:17;79229.69;;;-144.67;78.12
47522;BME280;32291;52.010;4.446;2023-04-06T02:22:21;79225.41;;;-144.67;78.07
47522;BME280;32291;52.010;4.446;2023-04-06T02:23:24;79221.13;;;-144.67;78.05
47522;BME280;32291;52.010;4.446;2023-04-06T02:24:25;79223.25;;;-144.67;78.00
47522;BME280;32291;52.010;4.446;2023-04-06T02:25:27;79221.13;;;-144.67;77.73
47522;BME280;32291;52.010;4.446;2023-04-06T02:26:29;79225.41;;;-144.67;77.96
47522;BME280;32291;52.010;4.446;2023-04-06T02:27:31;79218.97;;;-144.67;77.71
47522;BME280;32291;52.010;4.446;2023-04-06T02:28:33;79208.28;;;-144.67;77.45
47522;BME280;32291;52.010;4.446;2023-04-06T02:29:35;79208.28;;;-144.67;77.25
47522;BME280;32291;52.010;4.446;2023-04-06T02:30:37;79208.28;;;-144.67;77.35
47522;BME280;32291;52.010;4.446;2023-04-06T02:31:39;79208.28;;;-144.67;77.37
47522;BME280;32291;52.010;4.446;2023-04-06T02:32:41;79210.41;;;-144.67;77.47
47522;BME280;32291;52.010;4.446;2023-04-06T02:33:43;79206.13;;;-144.67;77.30
47522;BME280;32291;52.010;4.446;2023-04-06T02:34:45;79214.69;;;-144.67;77.22
47522;BME280;32291;52.010;4.446;2023-04-06T02:35:47;79210.41;;;-144.67;77.45
47522;BME280;32291;52.010;4.446;2023-04-06T02:36:48;79208.28;;;-144.67;77.59
47522;BME280;32291;52.010;4.446;2023-04-06T02:37:51;79212.56;;;-144.67;77.87
47522;BME280;32291;52.010;4.446;2023-04-06T02:38:52;79212.56;;;-144.67;77.92
47522;BME280;32291;52.010;4.446;2023-04-06T02:39:54;79199.72;;;-144.67;77.57
47522;BME280;32291;52.010;4.446;2023-04-06T02:40:55;79199.72;;;-144.67;77.19
47522;BME280;32291;52.010;4.446;2023-04-06T02:41:57;79197.56;;;-144.67;77.10
47522;BME280;32291;52.010;4.446;2023-04-06T02:42:58;79191.16;;;-144.67;77.04
47522;BME280;32291;52.010;4.446;2023-04-06T02:44:00;79195.44;;;-144.67;77.23
47522;BME280;32291;52.010;4.446;2023-04-06T02:45:02;79191.16;;;-144.67;77.11
47522;BME280;32291;52.010;4.446;2023-04-06T02:46:04;79182.56;;;-144.67;76.97
47522;BME280;32291;52.010;4.446;2023-04-06T02:47:05;79186.84;;;-144.67;76.96
47522;BME280;32291;52.010;4.446;2023-04-06T02:48:07;79191.16;;;-144.67;77.14
47522;BME280;32291;52.010;4.446;2023-04-06T02:49:09;79182.56;;;-144.67;76.99
47522;BME280;32291;52.010;4.446;2023-04-06T02:50:11;79186.84;;;-144.67;76.98
47522;BME280;32291;52.010;4.446;2023-04-06T02:51:12;79182.56;;;-144.67;77.04
47522;BME280;32291;52.010;4.446;2023-04-06T02:52:14;79182.56;;;-144.67;77.15
47522;BME280;32291;52.010;4.446;2023-04-06T02:53:16;79178.28;;;-144.67;76.69
47522;BME280;32291;52.010;4.446;2023-04-06T02:54:18;79180.44;;;-144.67;76.94
47522;BME280;32291;52.010;4.446;2023-04-06T02:55:21;79184.72;;;-144.67;77.17
47522;BME280;32291;52.010;4.446;2023-04-06T02:56:23;79182.56;;;-144.67;77.31
47522;BME280;32291;52.010;4.446;2023-04-06T02:57:25;79182.56;;;-144.67;77.24
47522;BME280;32291;52.010;4.446;2023-04-06T02:58:26;79178.28;;;-144.67;77.02
47522;BME280;32291;52.010;4.446;2023-04-06T02:59:28;79178.28;;;-144.67;77.01
47522;BME280;32291;52.010;4.446;2023-04-06T03:00:29;79182.56;;;-144.67;77.13
47522;BME280;32291;52.010;4.446;2023-04-06T03:01:31;79178.28;;;-144.67;77.30
47522;BME280;32291;52.010;4.446;2023-04-06T03:02:33;79178.28;;;-144.67;77.09
47522;BME280;32291;52.010;4.446;2023-04-06T03:03:34;79182.56;;;-144.67;77.20
47522;BME280;32291;52.010;4.446;2023-04-06T03:04:36;79186.84;;;-144.67;77.31
47522;BME280;32291;52.010;4.446;2023-04-06T03:05:38;79191.16;;;-144.67;77.62
47522;BME280;32291;52.010;4.446;2023-04-06T03:06:39;79186.84;;;-144.67;77.73
47522;BME280;32291;52.010;4.446;2023-04-06T03:07:41;79186.84;;;-144.67;77.73
47522;BME280;32291;52.010;4.446;2023-04-06T03:08:43;79182.56;;;-144.67;77.66
47522;BME280;32291;52.010;4.446;2023-04-06T03:09:45;79180.44;;;-144.67;77.64
47522;BME280;32291;52.010;4.446;2023-04-06T03:10:46;79182.56;;;-144.67;77.69
47522;BME280;32291;52.010;4.446;2023-04-06T03:11:48;79184.72;;;-144.67;77.99
47522;BME280;32291;52.010;4.446;2023-04-06T03:12:50;79186.84;;;-144.67;77.90
47522;BME280;32291;52.010;4.446;2023-04-06T03:13:52;79189.00;;;-144.67;78.05
47522;BME280;32291;52.010;4.446;2023-04-06T03:14:54;79186.84;;;-144.67;78.14
47522;BME280;32291;52.010;4.446;2023-04-06T03:15:56;79189.00;;;-144.67;78.36
47522;BME280;32291;52.010;4.446;2023-04-06T03:16:58;79195.44;;;-144.67;78.48
47522;BME280;32291;52.010;4.446;2023-04-06T03:18:00;79195.44;;;-144.67;78.60
47522;BME280;32291;52.010;4.446;2023-04-06T03:19:02;79199.72;;;-144.67;78.91
47522;BME280;32291;52.010;4.446;2023-04-06T03:20:04;79195.44;;;-144.67;79.05
47522;BME280;32291;52.010;4.446;2023-04-06T03:21:06;79189.00;;;-144.67;79.07
47522;BME280;32291;52.010;4.446;2023-04-06T03:22:08;79191.16;;;-144.67;79.09
47522;BME280;32291;52.010;4.446;2023-04-06T03:23:09;79182.56;;;-144.67;78.98
47522;BME280;32291;52.010;4.446;2023-04-06T03:24:11;79184.72;;;-144.67;79.03
47522;BME280;32291;52.010;4.446;2023-04-06T03:25:15;79189.00;;;-144.67;79.22
47522;BME280;32291;52.010;4.446;2023-04-06T03:26:17;79191.16;;;-144.67;79.39
47522;BME280;32291;52.010;4.446;2023-04-06T03:27:19;79195.44;;;-144.67;79.53
47522;BME280;32291;52.010;4.446;2023-04-06T03:28:21;79186.84;;;-144.67;79.89
47522;BME280;32291;52.010;4.446;2023-04-06T03:29:23;79191.16;;;-144.67;79.81
47522;BME280;32291;52.010;4.446;2023-04-06T03:30:24;79186.84;;;-144.67;79.81
47522;BME280;32291;52.010;4.446;2023-04-06T03:31:27;79186.84;;;-144.67;79.93
47522;BME280;32291;52.010;4.446;2023-04-06T03:32:29;79189.00;;;-144.67;79.82
47522;BME280;32291;52.010;4.446;2023-04-06T03:33:30;79189.00;;;-144.67;79.95
47522;BME280;32291;52.010;4.446;2023-04-06T03:34:33;79186.84;;;-144.67;80.02
47522;BME280;32291;52.010;4.446;2023-04-06T03:35:34;79178.28;;;-144.67;80.03
47522;BME280;32291;52.010;4.446;2023-04-06T03:36:38;79169.72;;;-144.67;79.82
47522;BME280;32291;52.010;4.446;2023-04-06T03:37:40;79169.72;;;-144.67;79.56
47522;BME280;32291;52.010;4.446;2023-04-06T03:38:42;79165.44;;;-144.67;79.37
47522;BME280;32291;52.010;4.446;2023-04-06T03:39:43;79165.44;;;-144.67;79.53
47522;BME280;32291;52.010;4.446;2023-04-06T03:40:45;79165.44;;;-144.67;79.43
47522;BME280;32291;52.010;4.446;2023-04-06T03:41:47;79167.59;;;-144.67;79.55
47522;BME280;32291;52.010;4.446;2023-04-06T03:42:49;79167.59;;;-144.67;79.67
47522;BME280;32291;52.010;4.446;2023-04-06T03:43:52;79165.44;;;-144.67;79.79
47522;BME280;32291;52.010;4.446;2023-04-06T03:44:54;79165.44;;;-144.67;79.77
47522;BME280;32291;52.010;4.446;2023-04-06T03:45:55;79161.16;;;-144.67;79.71
47522;BME280;32291;52.010;4.446;2023-04-06T03:46:57;79156.88;;;-144.67;79.73
47522;BME280;32291;52.010;4.446;2023-04-06T03:47:59;79152.59;;;-144.67;79.39
47522;BME280;32291;52.010;4.446;2023-04-06T03:49:00;79154.75;;;-144.67;79.36
47522;BME280;32291;52.010;4.446;2023-04-06T03:50:02;79150.47;;;-144.67;79.68
47522;BME280;32291;52.010;4.446;2023-04-06T03:51:04;79148.31;;;-144.67;79.43
47522;BME280;32291;52.010;4.446;2023-04-06T03:52:06;79139.75;;;-144.67;79.45
47522;BME280;32291;52.010;4.446;2023-04-06T03:53:08;79131.19;;;-144.67;79.44
47522;BME280;32291;52.010;4.446;2023-04-06T03:54:10;79137.59;;;-144.67;79.31
47522;BME280;32291;52.010;4.446;2023-04-06T03:55:12;79135.47;;;-144.67;79.36
47522;BME280;32291;52.010;4.446;2023-04-06T03:56:14;79135.47;;;-144.67;79.44
47522;BME280;32291;52.010;4.446;2023-04-06T03:57:16;79131.19;;;-144.67;79.12
47522;BME280;32291;52.010;4.446;2023-04-06T03:58:18;79126.91;;;-144.67;79.12
47522;BME280;32291;52.010;4.446;2023-04-06T03:59:19;79118.34;;;-144.67;79.23
47522;BME280;32291;52.010;4.446;2023-04-06T04:00:22;79120.47;;;-144.67;79.12
47522;BME280;32291;52.010;4.446;2023-04-06T04:01:24;79114.06;;;-144.67;79.20
47522;BME280;32291;52.010;4.446;2023-04-06T04:02:26;79114.06;;;-144.67;79.17
47522;BME280;32291;52.010;4.446;2023-04-06T04:03:27;79116.19;;;-144.67;79.00
47522;BME280;32291;52.010;4.446;2023-04-06T04:04:29;79105.47;;;-144.67;79.00
47522;BME280;32291;52.010;4.446;2023-04-06T04:05:31;79109.75;;;-144.67;79.42
47522;BME280;32291;52.010;4.446;2023-04-06T04:06:33;79109.75;;;-144.67;79.28
47522;BME280;32291;52.010;4.446;2023-04-06T04:07:35;79109.75;;;-144.67;79.20
47522;BME280;32291;52.010;4.446;2023-04-06T04:08:37;79109.75;;;-144.67;79.46
47522;BME280;32291;52.010;4.446;2023-04-06T04:09:39;79107.63;;;-144.67;79.69
47522;BME280;32291;52.010;4.446;2023-04-06T04:10:40;79105.47;;;-144.67;79.81
47522;BME280;32291;52.010;4.446;2023-04-06T04:11:42;79109.75;;;-144.67;79.98
47522;BME280;32291;52.010;4.446;2023-04-06T04:12:44;79107.63;;;-144.67;80.35
47522;BME280;32291;52.010;4.446;2023-04-06T04:13:46;79105.47;;;-144.67;80.28
47522;BME280;32291;52.010;4.446;2023-04-06T04:14:48;79114.06;;;-144.67;80.39
47522;BME280;32291;52.010;4.446;2023-04-06T04:15:50;79114.06;;;-144.67;80.45
47522;BME280;32291;52.010;4.446;2023-04-06T04:16:52;79105.47;;;-144.67;80.70
47522;BME280;32291;52.010;4.446;2023-04-06T04:17:54;79103.34;;;-144.67;80.80
47522;BME280;32291;52.010;4.446;2023-04-06T04:18:56;79101.19;;;-144.67;80.96
47522;BME280;32291;52.010;4.446;2023-04-06T04:19:59;79107.63;;;-144.67;80.94
47522;BME280;32291;52.010;4.446;2023-04-06T04:21:01;79105.47;;;-144.67;80.97
47522;BME280;32291;52.010;4.446;2023-04-06T04:22:03;79105.47;;;-144.67;81.12
47522;BME280;32291;52.010;4.446;2023-04-06T04:23:06;79101.19;;;-144.67;81.26
47522;BME280;32291;52.010;4.446;2023-04-06T04:24:08;79101.19;;;-144.67;81.12
47522;BME280;32291;52.010;4.446;2023-04-06T04:25:10;79101.19;;;-144.67;81.31
47522;BME280;32291;52.010;4.446;2023-04-06T04:26:12;79099.06;;;-144.67;81.48
47522;BME280;32291;52.010;4.446;2023-04-06T04:27:14;79105.47;;;-144.67;81.56
47522;BME280;32291;52.010;4.446;2023-04-06T04:28:17;79096.91;;;-144.67;81.87
47522;BME280;32291;52.010;4.446;2023-04-06T04:29:19;79114.06;;;-144.67;82.14
47522;BME280;32291;52.010;4.446;2023-04-06T04:30:22;79105.47;;;-144.67;82.38
47522;BME280;32291;52.010;4.446;2023-04-06T04:31:24;79103.34;;;-144.67;82.59
47522;BME280;32291;52.010;4.446;2023-04-06T04:32:26;79109.75;;;-144.67;82.63
47522;BME280;32291;52.010;4.446;2023-04-06T04:33:28;79118.34;;;-144.67;82.90
47522;BME280;32291;52.010;4.446;2023-04-06T04:34:30;79114.06;;;-144.67;83.13
47522;BME280;32291;52.010;4.446;2023-04-06T04:35:33;79109.75;;;-144.67;83.18
47522;BME280;32291;52.010;4.446;2023-04-06T04:36:34;79114.06;;;-144.67;83.61
47522;BME280;32291;52.010;4.446;2023-04-06T04:37:36;79109.75;;;-144.67;83.80
47522;BME280;32291;52.010;4.446;2023-04-06T04:38:38;79114.06;;;-144.67;83.84
47522;BME280;32291;52.010;4.446;2023-04-06T04:39:40;79118.34;;;-144.67;83.91
47522;BME280;32291;52.010;4.446;2023-04-06T04:40:42;79118.34;;;-144.67;84.04
47522;BME280;32291;52.010;4.446;2023-04-06T04:41:44;79107.63;;;-144.67;84.36
47522;BME280;32291;52.010;4.446;2023-04-06T04:42:46;79118.34;;;-144.67;84.24
47522;BME280;32291;52.010;4.446;2023-04-06T04:43:48;79118.34;;;-144.67;84.61
47522;BME280;32291;52.010;4.446;2023-04-06T04:44:50;79122.63;;;-144.67;84.91
47522;BME280;32291;52.010;4.446;2023-04-06T04:45:52;79126.91;;;-144.67;85.27
47522;BME280;32291;52.010;4.446;2023-04-06T04:46:54;79124.75;;;-144.67;85.52
47522;BME280;32291;52.010;4.446;2023-04-06T04:47:56;79131.19;;;-144.67;85.63
47522;BME280;32291;52.010;4.446;2023-04-06T04:48:58;79133.31;;;-144.67;85.88
47522;BME280;32291;52.010;4.446;2023-04-06T04:50:00;79129.03;;;-144.67;86.23
47522;BME280;32291;52.010;4.446;2023-04-06T04:51:02;79126.91;;;-144.67;86.29
47522;BME280;32291;52.010;4.446;2023-04-06T04:52:04;79126.91;;;-144.67;86.45
47522;BME280;32291;52.010;4.446;2023-04-06T04:53:06;79124.75;;;-144.67;86.44
47522;BME280;32291;52.010;4.446;2023-04-06T04:54:07;79120.47;;;-144.67;86.55
47522;BME280;32291;52.010;4.446;2023-04-06T04:55:09;79129.03;;;-144.67;86.58
47522;BME280;32291;52.010;4.446;2023-04-06T04:56:10;79120.47;;;-144.67;86.68
47522;BME280;32291;52.010;4.446;2023-04-06T04:57:12;79122.63;;;-144.67;86.69
47522;BME280;32291;52.010;4.446;2023-04-06T04:58:14;79124.75;;;-144.67;86.90
47522;BME280;32291;52.010;4.446;2023-04-06T04:59:18;79118.34;;;-144.67;86.99
47522;BME280;32291;52.010;4.446;2023-04-06T05:00:20;79124.75;;;-144.67;87.02
47522;BME280;32291;52.010;4.446;2023-04-06T05:01:22;79126.91;;;-144.67;87.18
47522;BME280;32291;52.010;4.446;2023-04-06T05:02:24;79118.34;;;-144.67;87.46
47522;BME280;32291;52.010;4.446;2023-04-06T05:03:26;79118.34;;;-144.67;87.45
47522;BME280;32291;52.010;4.446;2023-04-06T05:04:28;79114.06;;;-144.67;87.74
47522;BME280;32291;52.010;4.446;2023-04-06T05:05:30;79114.06;;;-144.67;87.74
47522;BME280;32291;52.010;4.446;2023-04-06T05:06:32;79114.06;;;-144.67;87.80
47522;BME280;32291;52.010;4.446;2023-04-06T05:07:34;79122.63;;;-144.67;87.82
47522;BME280;32291;52.010;4.446;2023-04-06T05:08:36;79122.63;;;-144.67;88.00
47522;BME280;32291;52.010;4.446;2023-04-06T05:09:37;79124.75;;;-144.67;88.12
47522;BME280;32291;52.010;4.446;2023-04-06T05:10:39;79120.47;;;-144.67;88.41
47522;BME280;32291;52.010;4.446;2023-04-06T05:11:41;79129.03;;;-144.67;88.65
47522;BME280;32291;52.010;4.446;2023-04-06T05:12:43;79129.03;;;-144.67;88.78
47522;BME280;32291;52.010;4.446;2023-04-06T05:13:45;79129.03;;;-144.67;88.95
47522;BME280;32291;52.010;4.446;2023-04-06T05:14:47;79124.75;;;-144.67;89.26
47522;BME280;32291;52.010;4.446;2023-04-06T05:15:49;79124.75;;;-144.67;89.26
47522;BME280;32291;52.010;4.446;2023-04-06T05:16:50;79122.63;;;-144.67;89.33
47522;BME280;32291;52.010;4.446;2023-04-06T05:17:52;79118.34;;;-144.67;89.51
47522;BME280;32291;52.010;4.446;2023-04-06T05:18:54;79118.34;;;-144.67;89.53